createdAt,value
2022-10-16T00:03:29.657Z,14.30
2022-10-16T00:08:41.304Z,14.40
2022-10-16T00:13:44.567Z,14.40
2022-10-16T00:18:46.455Z,14.40
2022-10-16T00:23:52.125Z,14.40
2022-10-16T00:28:53.946Z,14.40
2022-10-16T00:33:55.866Z,14.40
2022-10-16T00:44:04.917Z,14.30
2022-10-16T00:49:09.440Z,14.30
2022-10-16T00:54:15.460Z,14.30
2022-10-16T00:59:42.341Z,14.20
2022-10-16T01:04:53.647Z,14.10
2022-10-16T01:10:33.563Z,14.10
2022-10-16T01:15:52.302Z,14.10
2022-10-16T01:21:04.987Z,14.10
2022-10-16T01:26:10.238Z,14.10
2022-10-16T01:31:15.884Z,14.10
2022-10-16T01:36:22.608Z,14.10
2022-10-16T01:41:39.225Z,14.00
2022-10-16T01:46:44.847Z,14.00
2022-10-16T01:51:49.633Z,14.00
2022-10-16T01:56:52.418Z,14.00
2022-10-16T02:01:59.564Z,14.00
2022-10-16T02:07:01.836Z,13.90
2022-10-16T02:12:30.877Z,14.00
2022-10-16T02:17:33.610Z,14.00
2022-10-16T02:22:39.521Z,14.00
2022-10-16T02:27:51.105Z,13.90
2022-10-16T02:32:53.919Z,14.00
2022-10-16T02:37:56.885Z,14.00
2022-10-16T02:42:58.673Z,14.10
2022-10-16T02:48:00.413Z,14.00
2022-10-16T02:53:02.726Z,14.00
2022-10-16T02:58:04.444Z,13.90
2022-10-16T03:03:06.402Z,13.90
2022-10-16T03:08:08.138Z,13.90
2022-10-16T03:13:10.050Z,13.90
2022-10-16T03:18:11.929Z,13.90
2022-10-16T03:23:13.783Z,13.90
2022-10-16T03:28:15.601Z,13.90
2022-10-16T03:33:17.497Z,13.90
2022-10-16T03:38:19.261Z,13.90
2022-10-16T03:43:21.098Z,13.80
2022-10-16T03:48:22.920Z,13.90
2022-10-16T03:53:24.817Z,13.80
2022-10-16T03:58:26.778Z,13.70
2022-10-16T04:03:28.653Z,13.80
2022-10-16T04:08:30.459Z,13.80
2022-10-16T04:13:32.394Z,13.70
2022-10-16T04:18:34.490Z,13.80
2022-10-16T04:23:36.249Z,13.70
2022-10-16T04:28:38.294Z,13.70
2022-10-16T04:33:40.089Z,13.70
2022-10-16T04:38:42.022Z,13.70
2022-10-16T04:43:44.091Z,13.80
2022-10-16T04:48:46.133Z,13.70
2022-10-16T04:53:47.885Z,13.70
2022-10-16T04:58:49.683Z,13.80
2022-10-16T05:03:51.435Z,13.70
2022-10-16T05:08:56.235Z,13.70
2022-10-16T05:13:58.034Z,13.70
2022-10-16T05:24:21.638Z,13.60
2022-10-16T05:29:23.403Z,13.60
2022-10-16T05:34:25.137Z,13.60
2022-10-16T05:39:27.072Z,13.50
2022-10-16T05:44:28.825Z,13.50
2022-10-16T05:49:30.864Z,13.40
2022-10-16T05:54:32.631Z,13.40
2022-10-16T05:59:34.371Z,13.40
2022-10-16T06:04:36.150Z,13.40
2022-10-16T06:09:37.977Z,13.40
2022-10-16T06:14:39.729Z,13.50
2022-10-16T06:19:41.511Z,13.40
2022-10-16T06:24:43.236Z,13.40
2022-10-16T06:29:46.127Z,13.40
2022-10-16T06:34:47.865Z,13.40
2022-10-16T06:39:49.687Z,13.50
2022-10-16T06:44:51.479Z,13.30
2022-10-16T06:49:54.383Z,13.50
2022-10-16T06:54:56.280Z,13.50
2022-10-16T06:59:58.013Z,13.50
2022-10-16T07:04:59.740Z,13.60
2022-10-16T07:10:01.633Z,13.70
2022-10-16T07:15:03.513Z,13.80
2022-10-16T07:20:05.729Z,14.00
2022-10-16T07:25:08.070Z,14.10
2022-10-16T07:30:10.313Z,14.20
2022-10-16T07:35:12.101Z,14.30
2022-10-16T07:40:13.993Z,14.30
2022-10-16T07:45:15.765Z,14.40
2022-10-16T07:50:17.464Z,14.40
2022-10-16T07:55:19.199Z,14.60
2022-10-16T08:00:21.039Z,14.70
2022-10-16T08:05:23.023Z,14.70
2022-10-16T08:10:26.754Z,14.80
2022-10-16T08:15:28.537Z,14.80
2022-10-16T08:20:32.366Z,14.90
2022-10-16T08:25:37.372Z,15.00
2022-10-16T08:30:39.570Z,15.10
2022-10-16T08:35:41.334Z,15.30
2022-10-16T08:40:43.818Z,15.40
2022-10-16T08:46:03.671Z,15.50
2022-10-16T08:51:06.970Z,15.60
2022-10-16T08:56:08.924Z,15.80
2022-10-16T09:01:16.709Z,15.80
2022-10-16T09:06:37.233Z,16.00
2022-10-16T09:12:10.436Z,16.20
2022-10-16T09:17:30.209Z,16.30
2022-10-16T09:22:33.217Z,16.40
2022-10-16T09:27:35.067Z,16.60
2022-10-16T09:32:39.064Z,16.60
2022-10-16T09:37:42.023Z,16.80
2022-10-16T09:42:43.947Z,16.90
2022-10-16T09:47:46.460Z,16.90
2022-10-16T09:52:48.204Z,17.00
2022-10-16T09:57:54.434Z,17.20
2022-10-16T10:02:56.431Z,17.20
2022-10-16T10:08:00.794Z,17.40
2022-10-16T10:13:02.673Z,17.40
2022-10-16T10:18:18.903Z,17.50
2022-10-16T10:23:24.021Z,17.70
2022-10-16T10:28:48.304Z,17.60
2022-10-16T10:34:27.483Z,17.60
2022-10-16T10:39:44.688Z,17.90
2022-10-16T10:45:05.270Z,18.00
2022-10-16T10:50:33.420Z,18.30
2022-10-16T10:55:48.314Z,18.00
2022-10-16T11:01:02.443Z,18.10
2022-10-16T11:06:18.467Z,18.50
2022-10-16T11:11:41.454Z,18.40
2022-10-16T11:16:57.202Z,18.10
2022-10-16T11:22:18.418Z,17.70
2022-10-16T11:27:41.897Z,17.50
2022-10-16T11:33:06.864Z,17.40
2022-10-16T11:38:33.799Z,17.90
2022-10-16T11:44:13.715Z,18.40
2022-10-16T11:49:19.730Z,18.30
2022-10-16T11:54:40.419Z,18.10
2022-10-16T12:00:05.102Z,18.40
2022-10-16T12:05:21.180Z,18.30
2022-10-16T12:10:27.805Z,18.10
2022-10-16T12:15:58.284Z,18.10
2022-10-16T12:21:00.450Z,18.20
2022-10-16T12:26:03.698Z,18.20
2022-10-16T12:31:09.464Z,18.40
2022-10-16T12:36:27.440Z,18.50
2022-10-16T12:41:30.339Z,18.60
2022-10-16T12:46:34.029Z,18.50
2022-10-16T12:51:38.646Z,18.50
2022-10-16T12:56:52.315Z,18.60
2022-10-16T13:02:04.820Z,18.40
2022-10-16T13:07:44.982Z,18.40
2022-10-16T13:13:27.433Z,18.30
2022-10-16T13:18:38.129Z,18.30
2022-10-16T13:23:52.982Z,18.40
2022-10-16T13:28:54.873Z,18.70
2022-10-16T13:34:01.337Z,18.90
2022-10-16T13:39:25.411Z,18.70
2022-10-16T13:44:27.748Z,18.60
2022-10-16T13:49:29.658Z,18.70
2022-10-16T13:54:32.237Z,19.30
2022-10-16T13:59:35.753Z,19.10
2022-10-16T14:04:42.051Z,18.90
2022-10-16T14:09:48.706Z,18.80
2022-10-16T14:14:54.626Z,18.80
2022-10-16T14:20:02.473Z,18.70
2022-10-16T14:25:27.966Z,18.60
2022-10-16T14:30:31.155Z,18.50
2022-10-16T14:35:40.975Z,18.50
2022-10-16T14:40:49.246Z,18.40
2022-10-16T14:45:57.087Z,18.50
2022-10-16T14:50:58.875Z,18.70
2022-10-16T14:56:08.462Z,18.90
2022-10-16T15:01:12.858Z,18.90
2022-10-16T15:06:18.471Z,18.90
2022-10-16T15:11:21.350Z,18.70
2022-10-16T15:16:23.471Z,18.60
2022-10-16T15:21:31.480Z,18.40
2022-10-16T15:26:33.226Z,18.40
2022-10-16T15:31:35.182Z,18.40
2022-10-16T15:36:38.970Z,18.40
2022-10-16T15:46:48.238Z,18.10
2022-10-16T15:51:50.150Z,17.90
2022-10-16T15:56:51.943Z,17.80
2022-10-16T16:01:53.808Z,17.80
2022-10-16T16:06:55.741Z,17.60
2022-10-16T16:11:59.208Z,17.60
2022-10-16T16:17:01.190Z,17.50
2022-10-16T16:22:03.245Z,17.50
2022-10-16T16:27:05.218Z,17.30
2022-10-16T16:32:07.531Z,17.20
2022-10-16T16:37:09.424Z,17.20
2022-10-16T16:42:11.198Z,17.20
2022-10-16T16:47:13.110Z,17.10
2022-10-16T16:52:15.880Z,17.10
2022-10-16T16:57:17.852Z,17.00
2022-10-16T17:02:20.170Z,17.00
2022-10-16T17:07:24.336Z,16.90
2022-10-16T17:12:26.183Z,16.80
2022-10-16T17:17:28.228Z,16.80
2022-10-16T17:22:30.432Z,16.80
2022-10-16T17:27:32.503Z,16.90
2022-10-16T17:32:34.666Z,16.70
2022-10-16T17:37:36.400Z,16.50
2022-10-16T17:42:38.136Z,16.30
2022-10-16T17:47:42.876Z,16.20
2022-10-16T17:52:47.595Z,16.20
2022-10-16T17:57:49.339Z,16.10
2022-10-16T18:02:51.255Z,16.10
2022-10-16T18:07:53.246Z,16.00
2022-10-16T18:12:54.994Z,15.90
2022-10-16T18:17:56.708Z,15.90
2022-10-16T18:22:58.537Z,15.80
2022-10-16T18:28:00.367Z,15.80
2022-10-16T18:33:02.157Z,15.90
2022-10-16T18:38:03.943Z,15.80
2022-10-16T18:43:05.804Z,15.70
2022-10-16T18:48:10.584Z,15.60
2022-10-16T18:53:12.468Z,15.50
2022-10-16T18:58:14.366Z,15.50
2022-10-16T19:03:16.173Z,15.60
2022-10-16T19:08:17.998Z,15.60
2022-10-16T19:13:21.284Z,15.60
2022-10-16T19:18:26.704Z,15.50
2022-10-16T19:23:28.785Z,15.50
2022-10-16T19:28:31.078Z,15.50
2022-10-16T19:33:33.472Z,15.50
2022-10-16T19:38:35.276Z,15.50
2022-10-16T19:43:37.144Z,15.40
2022-10-16T19:48:40.242Z,15.40
2022-10-16T19:53:42.081Z,15.30
2022-10-16T19:58:44.979Z,15.30
2022-10-16T20:03:48.256Z,15.20
2022-10-16T20:08:51.745Z,15.10
2022-10-16T20:13:53.558Z,15.00
2022-10-16T20:18:55.964Z,15.10
2022-10-16T20:23:59.462Z,15.20
2022-10-16T20:29:02.184Z,15.20
2022-10-16T20:34:07.090Z,15.20
2022-10-16T20:39:09.266Z,15.10
2022-10-16T20:44:10.978Z,15.00
2022-10-16T20:49:28.383Z,15.00
2022-10-16T20:54:34.439Z,14.90
2022-10-16T20:59:43.295Z,14.90
2022-10-16T21:04:47.604Z,14.80
2022-10-16T21:09:49.406Z,14.80
2022-10-16T21:15:13.311Z,14.70
2022-10-16T21:20:13.846Z,14.80
2022-10-16T21:25:15.700Z,14.70
2022-10-16T21:30:44.980Z,14.80
2022-10-16T21:35:46.724Z,14.70
2022-10-16T21:40:48.407Z,14.80
2022-10-16T21:45:50.126Z,14.80
2022-10-16T21:50:52.049Z,14.70
2022-10-16T21:55:53.781Z,14.60
2022-10-16T22:00:55.552Z,14.50
2022-10-16T22:06:06.404Z,14.30
2022-10-16T22:11:22.041Z,14.40
2022-10-16T22:16:26.531Z,14.40
2022-10-16T22:21:28.550Z,14.30
2022-10-16T22:26:30.327Z,14.10
2022-10-16T22:31:33.041Z,14.30
2022-10-16T22:36:35.027Z,14.50
2022-10-16T22:41:37.201Z,14.50
2022-10-16T22:46:39.390Z,14.40
2022-10-16T22:51:41.307Z,14.50
2022-10-16T22:56:43.225Z,14.40
2022-10-16T23:01:45.017Z,14.30
2022-10-16T23:06:46.782Z,14.40
2022-10-16T23:11:48.649Z,14.60
2022-10-16T23:16:50.664Z,14.90
2022-10-16T23:21:52.541Z,14.90
2022-10-16T23:26:54.627Z,15.00
2022-10-16T23:31:57.227Z,15.00
2022-10-16T23:36:59.000Z,15.00
2022-10-16T23:42:00.853Z,15.00
2022-10-16T23:47:02.736Z,15.10
2022-10-16T23:52:04.557Z,15.10
2022-10-16T23:57:06.334Z,15.10
